Time;durP1;ratioP1;P1;durP2;ratioP2;P2;SDS_P1;SDS_P2;PMS_P1;PMS_P2;Temp;Humidity;BMP_temperature;BMP_pressure;BME280_temperature;BME280_humidity;BME280_pressure;Samples;Min_cycle;Max_cycle;Signal;HPM_P1;HPM_P2
2024/01/22 00:00:27;;;;;;;7.90;3.78;;;4.00;99.90;;;2.45;83.86;100982.41;4914825;28;20695;-81
2024/01/22 00:02:53;;;;;;;7.70;4.35;;;4.10;99.90;;;2.51;83.63;100971.97;4888548;28;20054;-80
2024/01/22 00:05:25;;;;;;;9.70;5.22;;;4.10;99.90;;;2.59;83.32;100964.06;4837313;29;20759;-80
2024/01/22 00:07:53;;;;;;;11.77;4.93;;;4.10;99.90;;;2.55;83.88;100955.47;4897756;29;20075;-81
2024/01/22 00:13:08;;;;;;;11.13;5.07;;;4.20;99.90;;;2.62;83.89;100944.13;4805231;29;20057;-80
2024/01/22 00:15:34;;;;;;;13.25;5.20;;;4.20;99.90;;;2.64;83.70;100931.13;4815810;29;20045;-80
2024/01/22 00:18:17;;;;;;;6.97;3.33;;;4.20;99.90;;;2.66;83.96;100930.22;4839466;29;20044;-81
2024/01/22 00:20:42;;;;;;;10.07;5.18;;;4.20;99.90;;;2.67;83.99;100931.06;4863946;29;20040;-81
2024/01/22 00:23:08;;;;;;;18.92;5.63;;;4.20;99.90;;;2.67;83.82;100921.53;4834753;29;20146;-80
2024/01/22 00:25:43;;;;;;;8.82;4.28;;;;;;;2.70;83.87;100905.06;4811093;29;20049;-81
2024/01/22 00:28:09;;;;;;;13.25;5.78;;;4.30;99.90;;;2.73;83.73;100898.94;4824574;29;20046;-80
2024/01/22 00:30:35;;;;;;;13.32;5.18;;;4.30;99.90;;;2.72;83.51;100889.41;4820496;29;20143;-81
2024/01/22 00:33:01;;;;;;;8.48;3.70;;;4.30;99.90;;;2.76;83.66;100883.28;4811997;29;20041;-81
2024/01/22 00:35:35;;;;;;;11.00;5.40;;;4.30;99.90;;;2.80;83.44;100883.25;4806171;29;20076;-80
2024/01/22 00:38:01;;;;;;;11.40;5.22;;;4.30;99.90;;;2.77;83.71;100879.84;4808441;29;20430;-81
2024/01/22 00:40:27;;;;;;;10.55;4.10;;;4.30;99.90;;;2.78;83.67;100881.53;4834539;29;20049;-81
2024/01/22 00:42:52;;;;;;;11.27;5.10;;;4.30;99.90;;;2.77;83.39;100880.69;4823876;29;20073;-80
2024/01/22 00:45:27;;;;;;;9.90;4.32;;;4.30;99.90;;;2.77;83.66;100870.28;4820640;29;20052;-80
2024/01/22 00:47:53;;;;;;;14.85;5.43;;;4.30;99.90;;;2.77;83.72;100862.50;4824802;29;20045;-81
2024/01/22 00:50:19;;;;;;;16.67;6.30;;;4.30;99.90;;;2.84;83.51;100855.47;4873696;28;20598;-80
2024/01/22 00:52:44;;;;;;;14.63;4.85;;;4.40;99.90;;;2.87;83.48;100861.50;4889494;28;20428;-80
2024/01/22 00:55:22;;;;;;;15.13;6.00;;;4.40;99.90;;;2.96;82.99;100849.22;4898728;28;20110;-81
2024/01/22 00:57:48;;;;;;;12.02;4.25;;;4.40;99.90;;;2.94;83.23;100851.88;4868271;28;20043;-80
2024/01/22 01:00:26;;;;;;;10.13;4.50;;;4.40;99.90;;;2.88;82.98;100842.41;4898895;28;20122;-81
2024/01/22 01:02:52;;;;;;;17.35;5.72;;;4.40;99.90;;;2.86;83.61;100843.31;4887969;28;20059;-80
2024/01/22 01:05:24;;;;;;;14.38;6.10;;;4.40;99.90;;;2.93;83.37;100829.31;4870780;28;22813;-81
2024/01/22 01:07:55;;;;;;;10.13;5.63;;;4.40;99.90;;;2.97;83.42;100824.97;4844608;28;20048;-80
2024/01/22 01:10:28;;;;;;;13.75;5.97;;;4.50;99.90;;;3.05;83.29;100828.31;4869219;28;20042;-82
2024/01/22 01:12:56;;;;;;;12.77;6.25;;;4.50;99.90;;;3.05;83.01;100838.72;4853383;28;20599;-81
2024/01/22 01:15:24;;;;;;;11.43;4.57;;;4.50;99.90;;;3.02;82.62;100839.63;4886382;28;20058;-81
2024/01/22 01:18:16;;;;;;;13.30;5.50;;;4.50;99.90;;;3.06;82.79;100814.41;4865815;28;20039;-81
2024/01/22 01:20:42;;;;;;;13.77;5.45;;;4.50;99.90;;;3.04;82.80;100813.56;4885663;28;20055;-81
2024/01/22 01:23:08;;;;;;;12.93;5.70;;;4.50;99.90;;;3.06;82.60;100809.22;4886751;28;20043;-81
2024/01/22 01:25:42;;;;;;;12.63;5.63;;;4.50;99.90;;;3.05;82.63;100797.09;4893464;28;20169;-80
2024/01/22 01:28:08;;;;;;;12.27;4.95;;;4.60;99.90;;;3.05;82.95;100797.94;4957564;28;20044;-80
2024/01/22 01:30:34;;;;;;;13.43;5.80;;;4.50;99.90;;;3.06;82.58;100799.66;4894311;28;20131;-82
2024/01/22 01:33:17;;;;;;;15.00;5.75;;;4.60;99.90;;;3.10;82.45;100786.63;4879376;28;20035;-82
2024/01/22 01:35:50;;;;;;;13.40;6.53;;;4.60;99.90;;;3.13;82.00;100782.22;4882123;28;20050;-80
2024/01/22 01:38:16;;;;;;;12.98;6.30;;;4.60;99.90;;;3.11;82.32;100776.19;4910740;28;20548;-82
2024/01/22 01:40:44;;;;;;;11.13;5.47;;;4.60;99.90;;;3.09;82.33;100757.16;4868417;28;20054;-81
2024/01/22 01:43:18;;;;;;;12.30;5.75;;;4.50;99.90;;;3.07;82.13;100738.94;4864516;28;20035;-82
2024/01/22 01:45:44;;;;;;;12.40;6.00;;;4.60;99.90;;;3.03;82.39;100745.09;4893578;28;20027;-81
2024/01/22 01:48:28;;;;;;;11.80;5.88;;;4.50;99.90;;;3.04;82.41;100720.78;4857040;28;20031;-81
2024/01/22 01:51:04;;;;;;;11.85;5.60;;;4.60;99.90;;;3.06;82.67;100711.19;4894179;28;20058;-80
2024/01/22 01:53:32;;;;;;;11.02;5.38;;;4.60;99.90;;;3.08;82.57;100708.59;4897776;28;20043;-81
2024/01/22 01:56:07;;;;;;;9.75;5.05;;;4.60;99.90;;;3.07;82.63;100699.06;4853693;28;20038;-80
2024/01/22 01:58:35;;;;;;;13.18;4.97;;;4.60;99.90;;;3.08;82.83;100704.22;4874888;28;20027;-81
2024/01/22 02:01:12;;;;;;;13.18;5.75;;;4.60;99.90;;;3.08;82.79;100706.84;4835919;28;20051;-81
2024/01/22 02:03:41;;;;;;;12.15;5.30;;;4.60;99.90;;;3.15;82.64;100711.94;4811741;28;20045;-81
2024/01/22 02:06:13;;;;;;;12.20;4.30;;;4.60;99.90;;;3.06;82.79;100720.75;4858348;29;21120;-82
2024/01/22 02:08:39;;;;;;;13.40;5.68;;;4.60;99.90;;;3.04;82.81;100718.16;4887287;28;20039;-81
2024/01/22 02:11:05;;;;;;;10.55;4.07;;;4.60;99.90;;;3.06;82.83;100716.41;4872244;28;20043;-82
2024/01/22 02:13:31;;;;;;;13.90;6.18;;;4.50;99.90;;;3.05;82.91;100714.69;4857488;28;20051;-81
2024/01/22 02:15:57;;;;;;;11.35;5.30;;;4.60;99.90;;;3.14;83.14;100715.44;4903022;28;20039;-79
2024/01/22 02:18:32;;;;;;;9.18;4.80;;;4.60;99.90;;;3.08;83.44;100700.78;4913498;28;20042;-81
2024/01/22 02:20:57;;;;;;;8.43;5.13;;;4.60;99.90;;;2.99;83.26;100699.19;4851950;28;20027;-80
2024/01/22 02:23:23;;;;;;;10.07;5.32;;;4.50;99.90;;;2.98;83.91;100694.00;4890840;28;20094;-81
2024/01/22 02:25:49;;;;;;;10.70;5.18;;;4.50;99.90;;;3.01;84.06;100702.63;4895998;28;20045;-81
2024/01/22 02:28:28;;;;;;;5.50;2.28;;;4.50;99.90;;;2.93;84.16;100701.88;4850703;28;20136;-81
2024/01/22 02:31:02;;;;;;;10.77;5.18;;;4.50;99.90;;;2.92;84.21;100694.13;4890890;28;20043;-81
2024/01/22 02:33:28;;;;;;;9.50;4.97;;;4.50;99.90;;;2.91;84.40;100695.00;4913466;28;20550;-80
2024/01/22 02:35:54;;;;;;;16.15;5.65;;;4.50;99.90;;;2.94;85.12;100700.13;4881416;28;20070;-80
2024/01/22 02:38:20;;;;;;;11.05;4.65;;;4.50;99.90;;;2.93;85.30;100701.88;4869439;28;20035;-81
2024/01/22 02:40:54;;;;;;;14.35;5.10;;;4.40;99.90;;;2.93;85.49;100678.47;4883668;28;20035;-81
2024/01/22 02:43:20;;;;;;;8.15;4.68;;;4.50;99.90;;;2.92;85.89;100692.38;4891389;28;20034;-80
2024/01/22 02:45:47;;;;;;;12.43;3.85;;;4.50;99.90;;;2.90;86.14;100675.94;4856708;28;20058;-81
2024/01/22 02:48:13;;;;;;;7.68;3.88;;;4.50;99.90;;;2.92;86.32;100666.38;4898879;28;20043;-82
2024/01/22 02:50:48;;;;;;;10.00;4.90;;;4.50;99.90;;;2.96;86.15;100651.53;4899452;28;20129;-81
2024/01/22 02:53:13;;;;;;;16.50;4.60;;;4.50;99.90;;;2.96;86.46;100639.41;4849447;28;20078;-81
2024/01/22 02:55:47;;;;;;;13.02;4.22;;;4.50;99.90;;;2.98;86.48;100635.06;4900916;28;20511;-80
2024/01/22 02:58:12;;;;;;;9.02;4.20;;;4.50;99.90;;;3.00;86.56;100635.88;4869284;28;20039;-81
2024/01/22 03:00:38;;;;;;;8.40;4.05;;;4.50;99.90;;;2.95;86.64;100640.28;4872992;28;20050;-81
2024/01/22 03:03:04;;;;;;;14.80;3.90;;;4.50;99.90;;;2.95;87.06;100611.69;4913236;28;20052;-81
2024/01/22 03:05:40;;;;;;;;;;;;;;;;;;;;;
2024/01/22 03:08:06;;;;;;;;;;;4.60;99.90;;;3.07;87.56;100580.25;4877890;28;20440;-80
2024/01/22 03:10:32;;;;;;;9.73;4.90;;;4.60;99.90;;;3.04;88.55;100574.25;4901691;28;19980;-81
2024/01/22 03:12:58;;;;;;;11.65;5.85;;;4.60;99.90;;;3.08;88.52;100558.53;4856697;28;20039;-81
2024/01/22 03:15:24;;;;;;;11.13;4.85;;;4.60;99.90;;;3.13;88.85;100532.44;4873993;28;20067;-82
2024/01/22 03:17:58;;;;;;;11.38;4.80;;;4.60;99.90;;;3.11;89.35;100465.72;4866089;28;20086;-81
2024/01/22 03:20:27;;;;;;;11.23;4.55;;;4.60;99.90;;;2.99;90.12;100420.00;4886019;28;20078;-82
2024/01/22 03:23:04;;;;;;;10.15;4.13;;;4.50;99.90;;;2.95;91.51;100398.41;4895065;28;20035;-82
2024/01/22 03:25:33;;;;;;;7.90;3.22;;;4.50;99.90;;;2.92;92.75;100395.03;4857998;28;20035;-81
2024/01/22 03:28:05;;;;;;;6.70;3.42;;;4.50;99.90;;;2.86;93.57;100377.78;4857711;28;20067;-81
2024/01/22 03:30:30;;;;;;;7.95;3.05;;;4.40;99.90;;;2.79;94.41;100371.00;4860376;28;20046;-81
2024/01/22 03:32:56;;;;;;;6.78;3.25;;;4.40;99.90;;;2.79;95.39;100365.81;4848847;28;20048;-82
2024/01/22 03:35:25;;;;;;;8.93;4.05;;;4.40;99.90;;;2.81;95.91;100351.03;4907937;28;20037;-83
2024/01/22 03:38:05;;;;;;;10.30;5.10;;;4.40;99.90;;;2.87;96.02;100348.28;4847913;28;20051;-82
2024/01/22 03:40:36;;;;;;;11.10;4.55;;;4.50;99.90;;;2.95;95.97;100400.16;4911749;28;20027;-83
2024/01/22 03:43:05;;;;;;;12.95;5.28;;;4.50;99.90;;;3.04;95.88;100416.41;4885202;28;20062;-82
2024/01/22 03:45:31;;;;;;;19.13;5.20;;;4.60;99.90;;;3.06;95.88;100388.63;4893231;28;20054;-82
2024/01/22 03:47:56;;;;;;;12.90;5.15;;;4.60;99.90;;;3.17;95.76;100384.94;4847127;28;20039;-82
2024/01/22 03:50:32;;;;;;;14.45;4.65;;;;;;;3.13;95.06;100365.09;4846418;28;20041;-82
2024/01/22 03:52:58;;;;;;;9.63;4.13;;;4.60;99.90;;;3.17;94.95;100351.13;4881127;28;21588;-81
2024/01/22 03:55:35;;;;;;;9.10;3.60;;;4.70;99.90;;;3.16;95.39;100328.59;4879707;28;20039;-83
2024/01/22 03:58:11;;;;;;;11.20;4.40;;;4.70;99.90;;;3.13;95.07;100358.13;4853428;28;20123;-82
2024/01/22 04:00:37;;;;;;;8.82;3.53;;;4.70;99.90;;;3.26;94.99;100361.31;4857886;28;20104;-82
2024/01/22 04:03:04;;;;;;;15.25;5.07;;;4.80;99.90;;;3.32;94.63;100355.97;4858458;28;20036;-83
2024/01/22 04:05:30;;;;;;;6.50;3.70;;;4.80;99.90;;;3.38;94.60;100381.88;4888410;28;20047;-81
2024/01/22 04:07:57;;;;;;;10.30;4.55;;;4.80;99.90;;;3.40;93.90;100387.06;4897213;28;20058;-81
2024/01/22 04:10:34;;;;;;;13.65;4.78;;;4.90;99.90;;;3.44;94.73;100368.72;4868553;28;20577;-84
2024/01/22 04:15:57;;;;;;;9.05;2.80;;;4.90;99.90;;;3.45;94.75;100361.75;4874453;28;20122;-82
2024/01/22 04:18:37;;;;;;;;;;;5.00;99.90;;;3.44;95.61;100308.00;4907790;28;20062;-82
2024/01/22 04:21:27;;;;;;;7.05;2.35;;;4.90;99.90;;;3.38;96.40;100397.47;4875697;28;19946;-84
2024/01/22 04:23:55;;;;;;;10.43;4.60;;;4.90;99.90;;;3.39;96.96;100308.13;4812990;29;20056;-82
2024/01/22 04:26:28;;;;;;;11.52;5.10;;;4.90;99.90;;;3.45;96.81;100281.06;4832903;29;20044;-83
2024/01/22 04:28:57;;;;;;;10.70;4.50;;;4.90;99.90;;;3.37;97.36;100256.97;4873732;29;20150;-83
2024/01/22 04:31:25;;;;;;;8.60;3.60;;;4.90;99.90;;;3.34;97.56;100231.88;4847590;29;20127;-84
2024/01/22 04:33:57;;;;;;;10.65;4.60;;;4.90;99.90;;;3.40;97.99;100315.03;4858746;29;20088;-83
2024/01/22 04:36:25;;;;;;;11.48;4.55;;;4.90;99.90;;;3.42;97.78;100240.38;4854479;29;20092;-83
2024/01/22 04:39:06;;;;;;;11.60;4.90;;;4.90;99.90;;;3.47;97.57;100290.53;4834281;29;20036;-83
2024/01/22 04:41:47;;;;;;;11.30;4.47;;;4.90;99.90;;;3.43;97.69;100231.66;4853033;29;20087;-82
2024/01/22 04:44:30;;;;;;;;;;;;;;;;;;;;;
2024/01/22 04:47:05;;;;;;;7.18;3.05;;;5.00;99.90;;;3.47;98.09;100321.78;4852451;29;20485;-84
2024/01/22 04:49:48;;;;;;;7.15;2.90;;;5.00;99.90;;;3.43;98.90;100299.31;4809059;29;20049;-82
2024/01/22 04:53:08;;;;;;;7.78;3.67;;;5.00;99.90;;;3.44;98.90;100282.81;4846077;29;20139;-83
2024/01/22 04:55:35;;;;;;;10.88;4.07;;;5.00;99.90;;;3.47;99.19;100269.72;4833006;29;20433;-81
2024/01/22 04:58:18;;;;;;;13.52;4.22;;;5.00;99.90;;;3.54;98.80;100241.78;4855068;29;20036;-82
2024/01/22 05:00:56;;;;;;;5.15;2.67;;;5.10;99.90;;;3.57;98.01;100251.28;4845650;28;20038;-83
2024/01/22 05:03:24;;;;;;;8.02;3.30;;;5.10;99.90;;;3.60;98.00;100256.41;4892393;28;20042;-83
2024/01/22 05:05:56;;;;;;;12.82;4.15;;;5.10;99.90;;;3.62;98.04;100234.66;4838828;29;20082;-83
2024/01/22 05:08:26;;;;;;;8.13;3.80;;;5.10;99.90;;;3.64;97.94;100235.47;4844421;28;20043;-82
2024/01/22 05:10:52;;;;;;;11.50;3.80;;;5.10;99.90;;;3.64;97.64;100221.59;4920303;28;20032;-83
2024/01/22 05:13:27;;;;;;;10.15;4.00;;;5.10;99.90;;;3.69;97.71;100233.63;4914227;28;20773;-82
2024/01/22 05:15:55;;;;;;;8.57;3.53;;;5.10;99.90;;;3.65;97.41;100233.69;4879044;28;20048;-82
2024/01/22 05:18:40;;;;;;;;;;;;;;;;;;;;;
2024/01/22 05:21:12;;;;;;;14.27;3.80;;;5.20;99.90;;;3.66;97.64;100202.44;4856870;28;20039;-83
2024/01/22 05:23:49;;;;;;;3.78;2.17;;;5.10;99.90;;;3.62;98.39;100228.59;4873577;28;20035;-82
2024/01/22 05:26:15;;;;;;;12.63;4.15;;;5.10;99.90;;;3.61;98.49;100213.88;4893820;28;20039;-82
2024/01/22 05:28:45;;;;;;;11.68;2.75;;;5.10;99.90;;;3.58;99.06;100213.94;4917062;28;20114;-82
2024/01/22 05:31:17;;;;;;;11.10;4.18;;;5.10;99.90;;;3.65;99.29;100192.03;4883105;28;20027;-83
2024/01/22 05:33:45;;;;;;;18.17;3.72;;;5.20;99.90;;;3.66;99.12;100179.00;4913777;28;20039;-83
2024/01/22 05:36:37;;;;;;;6.22;3.22;;;5.20;99.90;;;3.70;99.20;100179.78;4955345;28;20055;-81
2024/01/22 05:39:07;;;;;;;5.88;2.63;;;;;;;3.65;99.29;100173.81;4882957;28;20049;-83
2024/01/22 05:41:41;;;;;;;6.25;2.60;;;5.20;99.90;;;3.66;99.54;100155.56;4903669;28;20039;-83
2024/01/22 05:44:08;;;;;;;5.10;2.45;;;5.20;99.90;;;3.69;99.93;100141.59;4861406;28;20539;-82
2024/01/22 05:46:36;;;;;;;4.30;2.10;;;5.30;99.90;;;3.72;99.62;100158.91;4871055;28;20039;-83
2024/01/22 05:49:10;;;;;;;5.10;2.22;;;5.30;99.90;;;3.73;100.00;100163.22;4854188;28;20045;-82
2024/01/22 05:51:36;;;;;;;5.60;2.33;;;5.20;99.90;;;3.77;100.00;100160.47;4850274;28;20036;-82
2024/01/22 05:54:05;;;;;;;5.35;1.77;;;;;;;3.78;100.00;100157.00;4892333;28;20075;-84
2024/01/22 05:56:57;;;;;;;4.03;1.33;;;5.30;99.90;;;3.80;100.00;100155.19;4848996;28;20451;-84
2024/01/22 05:59:25;;;;;;;3.38;1.90;;;5.40;99.90;;;3.81;100.00;100132.59;4880925;28;20042;-84
2024/01/22 06:01:57;;;;;;;4.43;1.98;;;5.40;99.90;;;3.77;100.00;100133.59;4916348;28;20675;-83
2024/01/22 06:04:26;;;;;;;9.77;3.60;;;5.40;99.90;;;3.82;100.00;100079.59;4933642;23;20051;-82
2024/01/22 06:07:09;;;;;;;10.63;3.65;;;5.40;99.90;;;3.92;100.00;100067.19;4951978;28;20434;-83
2024/01/22 06:10:49;;;;;;;9.30;3.75;;;5.40;99.90;;;3.99;100.00;100053.91;4913708;28;20042;-83
2024/01/22 06:12:55;;;;;;;4.43;2.10;;;5.50;99.90;;;3.97;100.00;100122.59;4932671;28;20045;-83
2024/01/22 06:16:00;;;;;;;;;;;;;;;;;;;;;
2024/01/22 06:18:29;;;;;;;7.38;3.08;;;5.40;99.90;;;3.90;100.00;100075.88;4920323;28;20300;-84
2024/01/22 06:20:55;;;;;;;10.88;3.25;;;;;;;3.93;100.00;100069.75;4900058;28;20043;-84
2024/01/22 06:23:21;;;;;;;7.47;2.90;;;5.40;99.90;;;3.93;100.00;100069.75;4899002;28;20047;-84
2024/01/22 06:25:48;;;;;;;4.38;2.03;;;5.50;99.90;;;3.92;100.00;100072.41;4936912;23;20122;-83
2024/01/22 06:28:38;;;;;;;8.45;2.45;;;;;;;3.94;100.00;100073.19;4914634;28;20041;-84
2024/01/22 06:31:06;;;;;;;10.15;3.75;;;5.50;99.90;;;3.98;100.00;100059.19;4933274;28;20044;-83
2024/01/22 06:33:42;;;;;;;11.07;3.13;;;5.50;99.90;;;4.06;100.00;100008.56;4929464;28;20296;-83
2024/01/22 06:36:08;;;;;;;6.28;2.50;;;5.60;99.90;;;4.08;100.00;100040.63;4893203;28;20498;-84
2024/01/22 06:38:37;;;;;;;2.92;1.65;;;;;;;4.05;100.00;100029.44;4913713;28;20039;-83
2024/01/22 06:41:22;;;;;;;;;;;;;;;;;;;;;
2024/01/22 06:43:48;;;;;;;4.97;2.08;;;;;;;4.12;100.00;100028.34;4934880;23;20058;-84
2024/01/22 06:46:16;;;;;;;7.35;3.03;;;5.70;99.90;;;4.17;100.00;100010.81;4904101;28;20042;-83
2024/01/22 06:48:57;;;;;;;6.30;2.13;;;;;;;4.22;100.00;99997.66;4876906;28;20055;-84
2024/01/22 06:51:25;;;;;;;2.78;1.55;;;5.70;99.90;;;4.16;100.00;99990.88;4919897;29;20044;-85
2024/01/22 06:54:46;;;;;;;8.05;2.85;;;;;;;4.24;100.00;99995.84;4848713;29;20041;-83
2024/01/22 06:56:58;;;;;;;7.28;2.20;;;5.70;99.90;;;4.22;100.00;99998.50;4907455;29;20172;-84
2024/01/22 06:59:49;;;;;;;2.33;1.35;;;5.80;99.90;;;4.26;100.00;99981.84;4872896;28;20071;-81
2024/01/22 07:02:17;;;;;;;7.32;2.30;;;5.80;99.90;;;4.37;100.00;99976.28;4828436;29;20044;-83
2024/01/22 07:04:45;;;;;;;4.15;2.10;;;5.80;99.90;;;4.38;100.00;99987.56;4930440;23;20069;-84
2024/01/22 07:07:17;;;;;;;6.25;2.22;;;5.90;99.90;;;4.47;100.00;99987.25;4906250;28;20509;-82
2024/01/22 07:09:46;;;;;;;4.38;2.45;;;;;;;4.50;100.00;99992.38;4882205;28;20038;-84
2024/01/22 07:12:51;;;;;;;;;;;;;;;;;;;;;
2024/01/22 07:15:17;;;;;;;3.10;1.63;;;;;;;4.50;100.00;99981.97;4855944;28;20449;-83
2024/01/22 07:17:46;;;;;;;4.75;1.33;;;6.00;99.90;;;4.52;100.00;99980.16;4976853;28;20085;-84
2024/01/22 07:20:23;;;;;;;;;;;;;;;;;;;;;
2024/01/22 07:22:50;;;;;;;10.07;2.78;;;6.00;99.90;;;4.55;100.00;99951.34;4885123;28;20534;-84
2024/01/22 07:25:16;;;;;;;4.60;1.73;;;6.10;99.90;;;4.59;100.00;99962.53;4932141;23;20051;-84
2024/01/22 07:28:11;;;;;;;5.75;1.73;;;6.10;99.90;;;4.54;100.00;99967.06;4933133;28;20035;-84
2024/01/22 07:30:37;;;;;;;5.60;1.55;;;;;;;4.56;100.00;99966.09;4903004;28;20059;-85
2024/01/22 07:33:30;;;;;;;5.95;1.45;;;6.10;99.90;;;4.56;100.00;99962.63;4912468;28;20068;-85
2024/01/22 07:36:21;;;;;;;3.42;1.30;;;;;;;4.54;100.00;99962.69;4905539;28;20514;-84
2024/01/22 07:38:47;;;;;;;4.45;1.52;;;;;;;4.50;100.00;99961.94;4885702;28;20207;-84
2024/01/22 07:41:15;;;;;;;12.43;1.70;;;6.10;99.90;;;4.50;100.00;99968.91;4868220;28;20062;-85
2024/01/22 07:43:55;;;;;;;2.67;1.50;;;6.10;99.90;;;4.49;100.00;99951.56;4924454;23;20046;-84
2024/01/22 07:46:28;;;;;;;5.55;1.48;;;6.10;99.90;;;4.49;100.00;99970.69;4860083;28;20035;-84
2024/01/22 07:48:58;;;;;;;4.38;1.67;;;;;;;4.51;100.00;99955.84;4888468;28;20043;-85
2024/01/22 07:51:36;;;;;;;3.20;1.45;;;6.10;99.90;;;4.48;100.00;99949.88;4898698;28;20716;-84
2024/01/22 07:54:05;;;;;;;3.55;1.52;;;6.10;99.90;;;4.50;100.00;99946.31;4876549;28;20072;-85
2024/01/22 07:56:37;;;;;;;5.88;1.83;;;6.10;99.90;;;4.53;100.00;99947.94;4880423;28;20531;-85
2024/01/22 07:59:06;;;;;;;5.85;1.35;;;;;;;4.53;100.00;99955.78;4912848;28;20034;-84
2024/01/22 08:02:15;;;;;;;4.28;0.98;;;;;;;4.54;100.00;99935.78;4874674;28;21036;-85
2024/01/22 08:05:29;;;;;;;5.03;1.40;;;6.10;99.90;;;4.56;100.00;99939.16;4967467;23;20057;-85
2024/01/22 08:07:56;;;;;;;4.75;1.38;;;;;;;4.55;100.00;99930.50;4932389;28;20050;-84
2024/01/22 08:10:31;;;;;;;6.20;1.80;;;6.10;99.90;;;4.57;100.00;99925.25;4918355;28;20088;-83
2024/01/22 08:13:26;;;;;;;6.20;1.90;;;;;;;4.60;100.00;99936.44;4932901;28;20433;-83
2024/01/22 08:15:57;;;;;;;3.97;1.52;;;;;;;4.59;100.00;99921.66;4914930;28;20039;-84
2024/01/22 08:18:37;;;;;;;4.40;1.42;;;6.10;99.90;;;4.60;100.00;99936.44;4901620;28;20088;-83
2024/01/22 08:21:09;;;;;;;3.58;1.50;;;;;;;4.64;100.00;99924.94;4939323;28;20086;-85
2024/01/22 08:26:16;;;;;;;2.80;1.10;;;6.20;99.90;;;4.69;100.00;99923.06;4960033;28;20052;-84
2024/01/22 08:29:00;;;;;;;5.88;1.42;;;6.20;99.90;;;4.69;100.00;99912.63;4914977;28;20406;-84
2024/01/22 08:32:08;;;;;;;4.45;1.50;;;6.20;99.90;;;4.72;100.00;99917.72;4902760;28;20042;-83
2024/01/22 08:34:38;;;;;;;1.95;1.27;;;;;;;4.77;100.00;99916.72;4881363;28;20036;-84
2024/01/22 08:37:10;;;;;;;4.75;2.08;;;6.30;99.90;;;4.78;100.00;99919.28;4862341;28;20037;-85
2024/01/22 08:39:38;;;;;;;6.85;1.30;;;7.10;99.90;;;4.79;100.00;99899.25;4858254;28;20041;-84
2024/01/22 08:42:28;;;;;;;7.00;1.98;;;;;;;4.77;100.00;99901.91;4898136;28;20058;-85
2024/01/22 08:44:58;;;;;;;2.20;1.05;;;6.30;99.90;;;4.78;100.00;99895.78;4919762;23;20046;-86
2024/01/22 08:47:38;;;;;;;2.67;1.00;;;;;;;4.83;100.00;99882.59;4909130;28;20105;-83
2024/01/22 08:50:21;;;;;;;4.93;1.27;;;;;;;4.87;100.00;99877.19;4991913;28;20038;-85
2024/01/22 08:53:07;;;;;;;4.22;1.30;;;6.40;99.90;;;4.88;100.00;99872.81;4934249;28;20073;-83
2024/01/22 08:55:55;;;;;;;5.82;1.23;;;6.50;99.90;;;4.91;100.00;99859.69;4846171;29;20053;-84
2024/01/22 08:58:22;;;;;;;3.10;1.40;;;6.50;99.90;;;4.92;100.00;99859.63;4798899;29;20040;-84
2024/01/22 09:00:57;;;;;;;8.52;2.05;;;;;;;4.98;100.00;99850.72;4844843;29;20124;-84
2024/01/22 09:06:17;;;;;;;2.25;1.02;;;6.60;99.90;;;5.07;100.00;99868.63;4791552;29;20054;-85
2024/01/22 09:08:58;;;;;;;2.75;0.88;;;6.60;99.90;;;5.09;100.00;99856.38;4816718;29;20418;-84
2024/01/22 09:11:56;;;;;;;2.63;1.10;;;6.60;99.90;;;5.12;100.00;99848.44;4837467;29;20099;-85
2024/01/22 09:14:29;;;;;;;2.03;0.80;;;;;;;5.13;100.00;99839.69;4839597;29;20044;-84
2024/01/22 09:17:00;;;;;;;4.20;1.50;;;6.70;99.90;;;5.19;100.00;99832.56;4871689;29;20114;-84
2024/01/22 09:19:49;;;;;;;1.60;1.20;;;;;;;5.24;100.00;99826.22;4833300;29;20533;-83
2024/01/22 09:22:19;;;;;;;2.08;0.90;;;6.80;99.90;;;5.32;100.00;99832.00;4868346;29;20048;-84
2024/01/22 09:25:19;;;;;;;1.73;1.13;;;;;;;5.42;100.00;99839.47;4957654;23;20502;-85
2024/01/22 09:28:02;;;;;;;;;;;;;;;;;;;;;
2024/01/22 09:30:29;;;;;;;5.25;1.30;;;7.00;99.90;;;5.58;100.00;99850.16;4882418;28;20047;-84
2024/01/22 09:32:58;;;;;;;3.38;1.08;;;;;;;5.64;100.00;99847.31;4865526;28;20132;-83
2024/01/22 09:35:51;;;;;;;5.35;1.55;;;;;;;5.71;100.00;99849.59;4928269;28;20089;-84
2024/01/22 09:38:18;;;;;;;3.90;0.98;;;;;;;5.74;100.00;99861.69;4918679;28;20053;-82
2024/01/22 09:41:27;;;;;;;2.20;1.20;;;7.20;99.90;;;5.80;100.00;99855.38;4932693;28;20047;-84
2024/01/22 09:44:19;;;;;;;3.92;1.33;;;;;;;5.85;100.00;99838.59;4916713;28;20067;-83
2024/01/22 09:46:51;;;;;;;1.85;1.10;;;7.40;99.90;;;5.93;100.00;99826.06;4912399;28;20353;-84
2024/01/22 09:49:27;;;;;;;4.15;1.10;;;7.40;99.90;;;5.95;100.00;99821.66;4966081;28;20373;-84
2024/01/22 09:52:28;;;;;;;1.88;0.90;;;7.50;99.90;;;6.07;100.00;99843.81;4944370;28;20047;-84
2024/01/22 09:55:17;;;;;;;3.40;1.15;;;7.50;99.90;;;6.12;100.00;99830.56;4862608;29;20036;-84
2024/01/22 09:57:57;;;;;;;0.98;0.82;;;7.60;99.90;;;6.17;100.00;99825.97;4858222;29;20045;-84
2024/01/22 10:01:13;;;;;;;2.17;0.73;;;7.70;99.90;;;6.23;100.00;99811.78;4825092;29;20105;-84
2024/01/22 10:04:13;;;;;;;3.30;1.13;;;7.70;99.90;;;6.26;100.00;99833.41;4839898;29;20033;-84
2024/01/22 10:06:48;;;;;;;1.40;0.85;;;7.70;99.90;;;6.26;100.00;99807.25;4813529;29;20048;-83
2024/01/22 10:09:30;;;;;;;4.43;1.40;;;7.80;99.90;;;6.31;100.00;99812.31;4814900;29;20041;-82
2024/01/22 10:12:26;;;;;;;6.00;1.05;;;;;;;6.30;100.00;99807.97;4772910;29;20082;-83
2024/01/22 10:14:52;;;;;;;3.58;1.02;;;7.80;99.90;;;6.34;100.00;99784.25;4740143;30;20048;-84
2024/01/22 10:17:27;;;;;;;5.72;1.20;;;7.90;99.90;;;6.36;100.00;99785.03;4718618;30;20044;-82
2024/01/22 10:20:27;;;;;;;3.23;1.13;;;7.90;99.90;;;6.43;100.00;99792.59;4669288;30;20320;-84
2024/01/22 10:23:19;;;;;;;3.50;1.25;;;7.90;99.90;;;6.44;100.00;99799.56;4704064;30;20047;-83
2024/01/22 10:25:47;;;;;;;5.22;0.98;;;;;;;6.44;100.00;99787.31;4699207;30;20080;-84
2024/01/22 10:28:50;;;;;;;;;;;;;;;;;;;;;
2024/01/22 10:31:49;;;;;;;14.23;1.27;;;;;;;6.53;100.00;99784.28;4728151;29;20054;-83
2024/01/22 10:34:18;;;;;;;2.92;0.90;;;;;;;6.60;100.00;99779.63;4798063;29;20054;-83
2024/01/22 10:37:21;;;;;;;;;;;;;;;;;;;;;
2024/01/22 10:40:11;;;;;;;2.40;1.00;;;8.20;99.90;;;6.78;100.00;99770.06;4794920;29;20805;-83
2024/01/22 10:42:47;;;;;;;0.98;0.50;;;;;;;6.84;100.00;99761.94;4873976;29;20060;-82
2024/01/22 10:46:05;;;;;;;5.13;1.85;;;8.30;99.90;;;6.96;100.00;99764.00;4828807;29;20069;-83
2024/01/22 10:48:37;;;;;;;3.33;0.40;;;8.40;99.90;;;7.06;100.00;99755.69;4859336;29;20045;-83
2024/01/22 10:51:17;;;;;;;2.92;0.80;;;8.50;99.90;;;7.16;100.00;99759.59;4879129;28;20529;-84
2024/01/22 10:54:13;;;;;;;;;;;;;;;;;;;;;
2024/01/22 10:56:45;;;;;;;3.53;0.88;;;8.70;99.90;;;7.28;100.00;99766.00;4916286;28;21154;-84
2024/01/22 10:59:30;;;;;;;;;;;;;;;;;;;;;
2024/01/22 11:01:58;;;;;;;1.73;0.70;;;;;;;7.43;100.00;99752.19;4933664;28;20034;-82
2024/01/22 11:04:38;;;;;;;1.98;0.63;;;8.80;99.90;;;7.48;100.00;99767.66;4945287;28;20585;-85
2024/01/22 11:07:07;;;;;;;4.40;0.70;;;8.90;99.90;;;7.57;100.00;99757.56;4954567;28;20387;-83
2024/01/22 11:09:47;;;;;;;2.42;0.68;;;9.10;99.90;;;7.66;100.00;99753.63;4966893;28;20097;-83
2024/01/22 11:12:21;;;;;;;3.95;0.40;;;;;;;7.74;100.00;99750.66;4922811;28;20043;-84
2024/01/22 11:14:48;;;;;;;6.60;0.70;;;9.20;99.90;;;7.80;100.00;99750.34;4936885;28;20038;-83
2024/01/22 11:17:18;;;;;;;1.83;0.68;;;9.20;99.90;;;7.81;100.00;99762.50;4940816;28;20579;-84
2024/01/22 11:20:00;;;;;;;;;;;;;;;;;;;;;
2024/01/22 11:22:35;;;;;;;5.05;0.98;;;9.30;99.90;;;8.06;100.00;99732.44;5007973;28;20612;-84
2024/01/22 11:25:15;;;;;;;1.73;0.70;;;;;;;8.17;100.00;99738.78;4925375;28;20041;-83
2024/01/22 11:28:15;;;;;;;3.38;1.00;;;9.60;99.90;;;8.30;99.38;99731.13;4943823;28;20049;-83
2024/01/22 11:30:48;;;;;;;1.48;0.55;;;9.70;99.90;;;8.36;99.02;99735.22;4938349;28;20037;-83
2024/01/22 11:33:26;;;;;;;3.88;0.57;;;9.70;99.90;;;8.36;98.65;99727.34;4985043;28;20056;-85
2024/01/22 11:38:52;;;;;;;3.13;0.90;;;9.80;99.90;;;8.35;98.08;99718.59;4848524;29;20027;-84
2024/01/22 11:41:42;;;;;;;;;;;;;;;;;;;;;